createdAt,value
2023-01-01T00:00:28.145Z,77.80
2023-01-01T00:03:00.307Z,77.98
2023-01-01T00:05:32.363Z,78.03
2023-01-01T00:08:05.439Z,77.77
2023-01-01T00:10:38.496Z,77.88
2023-01-01T00:13:12.303Z,77.94
2023-01-01T00:15:44.463Z,78.14
2023-01-01T00:18:16.731Z,78.14
2023-01-01T00:20:48.965Z,78.21
2023-01-01T00:23:20.924Z,78.19
2023-01-01T00:25:53.142Z,77.93
2023-01-01T00:28:25.087Z,77.78
2023-01-01T00:30:57.017Z,78.23
2023-01-01T00:33:29.249Z,78.56
2023-01-01T00:36:09.839Z,78.59
2023-01-01T00:38:42.829Z,78.80
2023-01-01T00:41:16.093Z,78.97
2023-01-01T00:43:48.343Z,79.23
2023-01-01T00:46:20.381Z,79.08
2023-01-01T00:48:52.529Z,79.12
2023-01-01T00:51:25.198Z,79.45
2023-01-01T00:53:57.188Z,79.71
2023-01-01T00:56:29.066Z,79.74
2023-01-01T00:59:02.038Z,79.71
2023-01-01T01:01:35.053Z,79.92
2023-01-01T01:04:07.653Z,79.90
2023-01-01T01:06:39.633Z,79.98
2023-01-01T01:09:11.687Z,80.10
2023-01-01T01:11:43.956Z,80.15
2023-01-01T01:14:16.133Z,80.13
2023-01-01T01:16:48.891Z,80.05
2023-01-01T01:19:22.665Z,80.37
2023-01-01T01:21:54.735Z,80.26
2023-01-01T01:24:27.316Z,80.26
2023-01-01T01:26:59.344Z,80.35
2023-01-01T01:29:31.518Z,80.47
2023-01-01T01:32:03.429Z,80.62
2023-01-01T01:34:35.462Z,80.70
2023-01-01T01:37:07.270Z,80.49
2023-01-01T01:39:39.633Z,80.37
2023-01-01T01:42:19.203Z,80.33
2023-01-01T01:44:59.440Z,80.50
2023-01-01T01:47:56.590Z,80.67
2023-01-01T01:50:33.761Z,80.65
2023-01-01T01:53:11.291Z,80.30
2023-01-01T01:55:48.864Z,80.45
2023-01-01T01:58:21.071Z,80.49
2023-01-01T02:00:53.663Z,80.57
2023-01-01T02:03:34.554Z,80.43
2023-01-01T02:06:06.986Z,80.47
2023-01-01T02:08:39.720Z,80.46
2023-01-01T02:11:11.606Z,80.43
2023-01-01T02:13:43.837Z,80.56
2023-01-01T02:16:30.371Z,80.61
2023-01-01T02:19:26.346Z,80.38
2023-01-01T02:22:09.659Z,80.17
2023-01-01T02:24:50.582Z,79.81
2023-01-01T02:27:52.307Z,79.80
2023-01-01T02:30:24.591Z,79.66
2023-01-01T02:33:02.185Z,79.64
2023-01-01T02:35:38.740Z,79.70
2023-01-01T02:38:13.773Z,79.67
2023-01-01T02:40:51.852Z,79.18
2023-01-01T02:43:25.186Z,79.12
2023-01-01T02:45:58.027Z,79.18
2023-01-01T02:48:50.278Z,79.15
2023-01-01T02:51:28.394Z,79.31
2023-01-01T02:54:09.444Z,79.37
2023-01-01T02:56:47.530Z,79.55
2023-01-01T02:59:54.574Z,79.05
2023-01-01T03:02:56.585Z,79.21
2023-01-01T03:05:31.506Z,79.22
2023-01-01T03:08:12.758Z,79.13
2023-01-01T03:10:59.517Z,79.31
2023-01-01T03:13:44.884Z,79.10
2023-01-01T03:16:28.880Z,79.19
2023-01-01T03:19:12.369Z,79.23
2023-01-01T03:21:53.590Z,79.09
2023-01-01T03:24:55.595Z,79.11
2023-01-01T03:27:30.404Z,78.66
2023-01-01T03:30:08.505Z,78.46
2023-01-01T03:33:01.641Z,78.66
2023-01-01T03:35:57.148Z,78.67
2023-01-01T03:38:40.959Z,78.26
2023-01-01T03:41:15.962Z,78.43
2023-01-01T03:43:53.475Z,78.39
2023-01-01T03:46:28.324Z,78.43
2023-01-01T03:49:04.058Z,78.57
2023-01-01T03:51:58.694Z,78.71
2023-01-01T03:54:39.212Z,78.77
2023-01-01T03:57:28.965Z,78.88
2023-01-01T04:00:14.408Z,78.96
2023-01-01T04:03:07.141Z,79.11
2023-01-01T04:05:42.564Z,79.39
2023-01-01T04:08:16.666Z,79.40
2023-01-01T04:10:51.567Z,79.52
2023-01-01T04:13:23.890Z,79.17
2023-01-01T04:15:55.806Z,79.20
2023-01-01T04:18:27.819Z,78.94
2023-01-01T04:20:59.950Z,79.00
2023-01-01T04:23:31.866Z,78.60
2023-01-01T04:26:03.748Z,78.54
2023-01-01T04:28:35.696Z,78.65
2023-01-01T04:31:07.623Z,78.80
2023-01-01T04:33:39.593Z,79.00
2023-01-01T04:36:12.078Z,79.11
2023-01-01T04:38:44.175Z,79.57
2023-01-01T04:41:16.291Z,79.58
2023-01-01T04:43:51.409Z,79.74
2023-01-01T04:46:24.503Z,79.87
2023-01-01T04:48:56.667Z,79.97
2023-01-01T04:51:28.680Z,80.16
2023-01-01T04:54:02.330Z,80.22
2023-01-01T04:56:34.583Z,80.58
2023-01-01T04:59:06.583Z,80.74
2023-01-01T05:01:38.952Z,80.81
2023-01-01T05:04:13.819Z,80.90
2023-01-01T05:06:46.124Z,80.91
2023-01-01T05:09:18.042Z,80.96
2023-01-01T05:11:49.914Z,80.97
2023-01-01T05:14:21.830Z,80.97
2023-01-01T05:16:54.675Z,81.09
2023-01-01T05:19:26.586Z,81.25
2023-01-01T05:21:58.728Z,81.25
2023-01-01T05:24:31.573Z,81.36
2023-01-01T05:27:03.738Z,81.36
2023-01-01T05:29:35.735Z,81.07
2023-01-01T05:34:41.396Z,81.29
2023-01-01T05:37:13.262Z,81.50
2023-01-01T05:39:45.288Z,81.53
2023-01-01T05:42:18.987Z,81.60
2023-01-01T05:44:50.964Z,81.74
2023-01-01T05:47:22.959Z,81.86
2023-01-01T05:49:55.001Z,81.90
2023-01-01T05:52:27.218Z,81.87
2023-01-01T05:55:00.916Z,81.95
2023-01-01T05:57:32.947Z,82.06
2023-01-01T06:00:05.730Z,81.91
2023-01-01T06:02:37.652Z,81.94
2023-01-01T06:05:10.373Z,81.87
2023-01-01T06:07:48.216Z,82.04
2023-01-01T06:10:15.766Z,82.08
2023-01-01T06:12:47.759Z,82.02
2023-01-01T06:15:19.671Z,82.04
2023-01-01T06:17:51.623Z,81.96
2023-01-01T06:20:23.595Z,82.15
2023-01-01T06:22:55.628Z,82.25
2023-01-01T06:25:27.737Z,82.26
2023-01-01T06:27:59.891Z,82.33
2023-01-01T06:30:33.415Z,82.36
2023-01-01T06:33:06.092Z,82.52
2023-01-01T06:35:38.080Z,82.47
2023-01-01T06:38:10.055Z,82.48
2023-01-01T06:40:41.984Z,82.46
2023-01-01T06:43:14.291Z,82.59
2023-01-01T06:46:24.324Z,82.53
2023-01-01T06:48:59.401Z,82.50
2023-01-01T06:51:33.984Z,82.48
2023-01-01T06:54:06.755Z,82.52
2023-01-01T06:56:39.443Z,82.53
2023-01-01T06:59:11.439Z,82.54
2023-01-01T07:01:44.527Z,82.63
2023-01-01T07:04:17.503Z,82.59
2023-01-01T07:06:49.482Z,82.54
2023-01-01T07:09:21.489Z,82.60
2023-01-01T07:11:53.374Z,82.21
2023-01-01T07:14:25.341Z,81.94
2023-01-01T07:16:57.366Z,82.07
2023-01-01T07:19:29.314Z,82.00
2023-01-01T07:22:01.351Z,81.97
2023-01-01T07:24:35.120Z,82.06
2023-01-01T07:27:07.669Z,81.85
2023-01-01T07:29:39.630Z,82.11
2023-01-01T07:32:15.327Z,82.32
2023-01-01T07:34:50.616Z,82.27
2023-01-01T07:37:22.681Z,82.36
2023-01-01T07:39:54.599Z,82.35
2023-01-01T07:42:26.566Z,82.26
2023-01-01T07:44:58.627Z,82.10
2023-01-01T07:47:30.710Z,82.16
2023-01-01T07:50:02.628Z,82.05
2023-01-01T07:52:34.623Z,82.17
2023-01-01T07:55:06.866Z,82.15
2023-01-01T07:57:38.875Z,82.03
2023-01-01T08:00:16.055Z,81.82
2023-01-01T08:02:48.528Z,81.75
2023-01-01T08:05:26.211Z,81.51
2023-01-01T08:07:54.225Z,81.39
2023-01-01T08:10:26.361Z,81.31
2023-01-01T08:13:02.644Z,81.27
2023-01-01T08:15:35.568Z,81.16
2023-01-01T08:18:07.816Z,81.26
2023-01-01T08:20:39.764Z,81.31
2023-01-01T08:23:11.967Z,81.16
2023-01-01T08:25:43.877Z,81.30
2023-01-01T08:28:15.804Z,81.41
2023-01-01T08:30:47.898Z,81.40
2023-01-01T08:33:20.027Z,81.28
2023-01-01T08:35:54.393Z,81.43
2023-01-01T08:38:25.587Z,81.33
2023-01-01T08:40:57.538Z,81.50
2023-01-01T08:43:29.467Z,81.60
2023-01-01T08:46:01.511Z,81.55
2023-01-01T08:48:33.494Z,81.63
2023-01-01T08:51:05.655Z,81.54
2023-01-01T08:53:37.935Z,81.36
2023-01-01T08:56:11.838Z,81.28
2023-01-01T08:58:44.516Z,81.17
2023-01-01T09:01:17.193Z,81.36
2023-01-01T09:03:49.682Z,81.22
2023-01-01T09:06:21.791Z,81.48
2023-01-01T09:08:53.780Z,81.34
2023-01-01T09:11:28.005Z,81.36
2023-01-01T09:13:59.283Z,81.26
2023-01-01T09:16:30.988Z,81.10
2023-01-01T09:19:03.210Z,80.84
2023-01-01T09:21:35.081Z,80.99
2023-01-01T09:24:07.658Z,80.96
2023-01-01T09:26:39.787Z,80.90
2023-01-01T09:29:11.834Z,80.83
2023-01-01T09:31:43.834Z,80.71
2023-01-01T09:34:18.265Z,80.86
2023-01-01T09:36:49.467Z,80.81
2023-01-01T09:39:21.581Z,80.50
2023-01-01T09:42:06.715Z,80.38
2023-01-01T09:44:52.271Z,80.66
2023-01-01T09:47:32.742Z,80.63
2023-01-01T09:50:22.889Z,80.84
2023-01-01T09:53:00.223Z,80.96
2023-01-01T09:56:00.578Z,81.05
2023-01-01T09:58:35.402Z,81.09
2023-01-01T10:01:42.134Z,80.95
2023-01-01T10:04:34.512Z,80.94
2023-01-01T10:07:29.888Z,80.82
2023-01-01T10:10:07.587Z,80.94
2023-01-01T10:13:01.683Z,81.02
2023-01-01T10:15:37.021Z,81.09
2023-01-01T10:18:11.941Z,81.13
2023-01-01T10:20:47.626Z,81.18
2023-01-01T10:23:28.723Z,81.19
2023-01-01T10:26:03.668Z,81.35
2023-01-01T10:28:46.928Z,81.33
2023-01-01T10:31:24.044Z,81.34
2023-01-01T10:33:56.237Z,81.31
2023-01-01T10:36:28.502Z,81.48
2023-01-01T10:39:00.590Z,81.59
2023-01-01T10:41:32.932Z,81.48
2023-01-01T10:44:04.879Z,81.42
2023-01-01T10:46:39.763Z,81.53
2023-01-01T10:49:14.003Z,81.47
2023-01-01T10:51:48.566Z,81.41
2023-01-01T10:54:32.788Z,81.52
2023-01-01T10:57:19.643Z,81.54
2023-01-01T10:59:54.403Z,81.63
2023-01-01T11:02:28.724Z,81.48
2023-01-01T11:05:22.647Z,81.66
2023-01-01T11:07:55.096Z,81.80
2023-01-01T11:10:29.208Z,81.45
2023-01-01T11:13:05.992Z,81.62
2023-01-01T11:15:40.684Z,81.49
2023-01-01T11:18:18.521Z,81.58
2023-01-01T11:20:58.782Z,81.53
2023-01-01T11:23:34.173Z,81.28
2023-01-01T11:26:11.630Z,81.33
2023-01-01T11:28:43.625Z,81.21
2023-01-01T11:31:20.979Z,81.06
2023-01-01T11:33:56.165Z,81.15
2023-01-01T11:36:31.092Z,81.12
2023-01-01T11:39:09.017Z,81.38
2023-01-01T11:41:46.848Z,81.63
2023-01-01T11:44:27.646Z,81.69
2023-01-01T11:47:00.500Z,81.73
2023-01-01T11:49:33.167Z,81.87
2023-01-01T11:52:08.056Z,82.14
2023-01-01T11:54:40.317Z,82.17
2023-01-01T11:57:21.667Z,82.28
2023-01-01T11:59:56.480Z,82.29
2023-01-01T12:02:43.587Z,82.31
2023-01-01T12:05:21.214Z,82.31
2023-01-01T12:07:54.346Z,82.02
2023-01-01T12:10:32.117Z,81.93
2023-01-01T12:13:06.940Z,82.26
2023-01-01T12:15:41.831Z,82.25
2023-01-01T12:18:16.942Z,82.49
2023-01-01T12:20:57.468Z,82.58
2023-01-01T12:23:30.257Z,82.65
2023-01-01T12:26:11.398Z,82.76
2023-01-01T12:28:47.066Z,82.99
2023-01-01T12:31:30.913Z,83.12
2023-01-01T12:34:11.780Z,83.43
2023-01-01T12:36:49.177Z,83.48
2023-01-01T12:39:56.761Z,83.61
2023-01-01T12:42:48.079Z,83.74
2023-01-01T12:45:39.278Z,83.76
2023-01-01T12:48:45.568Z,83.97
2023-01-01T12:51:32.492Z,83.81
2023-01-01T12:54:28.389Z,83.83
2023-01-01T12:57:08.747Z,84.00
2023-01-01T12:59:43.708Z,84.02
2023-01-01T13:02:22.015Z,83.96
2023-01-01T13:04:57.389Z,84.12
2023-01-01T13:07:37.909Z,84.14
2023-01-01T13:10:28.010Z,84.35
2023-01-01T13:12:59.846Z,84.34
2023-01-01T13:15:48.686Z,84.17
2023-01-01T13:18:29.772Z,84.32
2023-01-01T13:21:04.982Z,84.29
2023-01-01T13:23:40.768Z,84.33
2023-01-01T13:26:25.115Z,84.45
2023-01-01T13:29:03.530Z,84.63
2023-01-01T13:31:44.473Z,84.69
2023-01-01T13:34:37.743Z,84.71
2023-01-01T13:37:17.833Z,84.85
2023-01-01T13:39:54.971Z,84.72
2023-01-01T13:43:02.366Z,84.84
2023-01-01T13:48:41.240Z,84.95
2023-01-01T13:51:54.729Z,84.96
2023-01-01T13:54:04.948Z,84.95
2023-01-01T13:56:39.734Z,85.00
2023-01-01T13:59:23.576Z,85.03
2023-01-01T14:02:29.187Z,85.19
2023-01-01T14:05:12.611Z,85.14
2023-01-01T14:07:51.989Z,84.95
2023-01-01T14:10:35.379Z,85.10
2023-01-01T14:13:10.539Z,85.11
2023-01-01T14:15:45.395Z,85.20
2023-01-01T14:18:19.558Z,85.30
2023-01-01T14:20:53.390Z,85.31
2023-01-01T14:23:40.258Z,85.44
2023-01-01T14:26:15.273Z,85.46
2023-01-01T14:28:48.167Z,85.53
2023-01-01T14:31:25.867Z,85.57
2023-01-01T14:33:57.888Z,85.31
2023-01-01T14:36:32.722Z,85.43
2023-01-01T14:39:04.869Z,85.51
2023-01-01T14:41:39.593Z,85.50
2023-01-01T14:44:16.921Z,85.47
2023-01-01T14:46:54.407Z,85.46
2023-01-01T14:49:32.140Z,85.54
2023-01-01T14:52:10.225Z,85.57
2023-01-01T14:54:44.715Z,85.58
2023-01-01T14:57:25.389Z,85.57
2023-01-01T14:59:57.585Z,85.66
2023-01-01T15:02:33.395Z,85.49
2023-01-01T15:05:33.305Z,85.57
2023-01-01T15:08:02.939Z,85.44
2023-01-01T15:10:37.828Z,85.36
2023-01-01T15:13:09.843Z,85.44
2023-01-01T15:15:47.275Z,85.46
2023-01-01T15:18:42.956Z,85.58
2023-01-01T15:21:34.098Z,85.51
2023-01-01T15:24:19.617Z,85.44
2023-01-01T15:27:00.169Z,85.41
2023-01-01T15:29:34.958Z,85.42
2023-01-01T15:32:11.579Z,85.52
2023-01-01T15:34:52.336Z,85.52
2023-01-01T15:37:26.701Z,85.65
2023-01-01T15:39:58.537Z,85.56
2023-01-01T15:42:35.823Z,85.36
2023-01-01T15:45:22.556Z,85.28
2023-01-01T15:47:56.593Z,85.55
2023-01-01T15:50:41.624Z,85.81
2023-01-01T15:53:30.432Z,85.96
2023-01-01T15:56:07.879Z,85.93
2023-01-01T15:58:42.688Z,86.03
2023-01-01T16:01:17.101Z,86.17
2023-01-01T16:03:52.400Z,86.18
2023-01-01T16:06:24.552Z,86.19
2023-01-01T16:08:56.431Z,86.28
2023-01-01T16:11:28.349Z,86.29
2023-01-01T16:14:00.199Z,86.35
2023-01-01T16:16:33.330Z,86.30
2023-01-01T16:19:05.856Z,86.25
2023-01-01T16:21:37.847Z,86.46
2023-01-01T16:24:15.198Z,86.37
2023-01-01T16:26:47.672Z,86.57
2023-01-01T16:29:20.181Z,86.64
2023-01-01T16:31:53.028Z,86.70
2023-01-01T16:34:25.032Z,86.68
2023-01-01T16:36:56.941Z,86.77
2023-01-01T16:39:28.973Z,86.89
2023-01-01T16:42:00.936Z,86.98
2023-01-01T16:44:32.918Z,87.11
2023-01-01T16:47:04.915Z,87.11
2023-01-01T16:49:36.854Z,87.10
2023-01-01T16:52:08.831Z,87.11
2023-01-01T16:54:40.879Z,87.04
2023-01-01T16:57:12.822Z,87.12
2023-01-01T16:59:44.883Z,87.08
2023-01-01T17:02:16.915Z,87.17
2023-01-01T17:04:49.190Z,87.15
2023-01-01T17:07:21.695Z,87.18
2023-01-01T17:09:53.717Z,87.17
2023-01-01T17:12:25.687Z,87.20
2023-01-01T17:14:57.757Z,87.18
2023-01-01T17:17:30.909Z,87.25
2023-01-01T17:20:03.134Z,87.28
2023-01-01T17:22:36.037Z,87.38
2023-01-01T17:25:08.545Z,87.55
2023-01-01T17:27:42.131Z,87.57
2023-01-01T17:30:15.435Z,87.63
2023-01-01T17:32:47.363Z,87.59
2023-01-01T17:35:19.390Z,87.64
2023-01-01T17:37:51.429Z,87.66
2023-01-01T17:40:23.320Z,87.73
2023-01-01T17:42:55.429Z,87.58
2023-01-01T17:45:27.387Z,87.70
2023-01-01T17:47:59.348Z,87.80
2023-01-01T17:50:31.291Z,87.91
2023-01-01T17:53:03.339Z,87.98
2023-01-01T17:55:35.429Z,87.94
2023-01-01T17:58:07.528Z,88.11
2023-01-01T18:00:39.486Z,87.98
2023-01-01T18:03:15.350Z,88.03
2023-01-01T18:05:47.473Z,88.02
2023-01-01T18:08:19.443Z,88.05
2023-01-01T18:10:57.582Z,88.13
2023-01-01T18:13:29.537Z,88.03
2023-01-01T18:16:03.392Z,88.11
2023-01-01T18:18:39.785Z,88.17
2023-01-01T18:21:22.078Z,88.22
2023-01-01T18:23:56.785Z,88.27
2023-01-01T18:26:31.458Z,88.27
2023-01-01T18:29:04.037Z,88.39
2023-01-01T18:31:36.702Z,88.35
2023-01-01T18:34:08.883Z,88.40
2023-01-01T18:36:40.947Z,88.52
2023-01-01T18:39:18.944Z,88.62
2023-01-01T18:41:53.723Z,88.50
2023-01-01T18:44:27.618Z,88.54
2023-01-01T18:47:08.400Z,88.64
2023-01-01T18:49:40.512Z,88.72
2023-01-01T18:52:16.357Z,88.76
2023-01-01T18:54:48.658Z,88.79
2023-01-01T18:57:29.242Z,88.73
2023-01-01T18:59:56.774Z,88.91
2023-01-01T19:02:38.203Z,88.84
2023-01-01T19:05:19.523Z,88.65
2023-01-01T19:08:09.608Z,88.64
2023-01-01T19:10:50.356Z,88.61
2023-01-01T19:13:27.855Z,88.70
2023-01-01T19:16:05.783Z,88.79
2023-01-01T19:18:39.244Z,88.77
2023-01-01T19:21:17.135Z,88.72
2023-01-01T19:23:57.195Z,88.77
2023-01-01T19:26:44.018Z,88.64
2023-01-01T19:29:24.357Z,88.81
2023-01-01T19:31:58.004Z,88.74
2023-01-01T19:34:29.989Z,88.79
2023-01-01T19:37:01.972Z,88.75
2023-01-01T19:39:38.045Z,88.72
2023-01-01T19:42:10.559Z,88.48
2023-01-01T19:44:42.383Z,88.50
2023-01-01T19:47:14.305Z,88.65
2023-01-01T19:49:49.407Z,88.65
2023-01-01T19:52:19.957Z,88.70
2023-01-01T19:54:51.855Z,88.63
2023-01-01T19:57:23.857Z,88.47
2023-01-01T19:59:55.751Z,88.32
2023-01-01T20:02:55.650Z,88.24
2023-01-01T20:05:01.581Z,88.03
2023-01-01T20:07:34.533Z,88.15
2023-01-01T20:10:06.966Z,88.15
2023-01-01T20:12:39.008Z,88.25
2023-01-01T20:15:11.252Z,88.16
2023-01-01T20:17:43.795Z,88.00
2023-01-01T20:20:15.706Z,87.85
2023-01-01T20:22:47.816Z,87.61
2023-01-01T20:25:20.046Z,87.78
2023-01-01T20:28:09.858Z,87.74
2023-01-01T20:30:41.755Z,87.71
2023-01-01T20:33:13.860Z,87.79
2023-01-01T20:36:03.586Z,87.69
2023-01-01T20:38:40.049Z,87.77
2023-01-01T20:41:23.946Z,87.64
2023-01-01T20:44:00.278Z,87.67
2023-01-01T20:46:32.256Z,87.49
2023-01-01T20:49:04.236Z,87.79
2023-01-01T20:51:36.275Z,87.72
2023-01-01T20:54:08.407Z,87.77
2023-01-01T20:56:40.617Z,87.82
2023-01-01T20:59:34.119Z,87.88
2023-01-01T21:01:46.655Z,87.79
2023-01-01T21:04:19.517Z,87.89
2023-01-01T21:06:51.395Z,87.72
2023-01-01T21:09:23.298Z,87.62
2023-01-01T21:11:55.193Z,87.09
2023-01-01T21:14:27.121Z,86.85
2023-01-01T21:16:59.065Z,87.11
2023-01-01T21:19:31.097Z,87.05
2023-01-01T21:22:03.512Z,87.00
2023-01-01T21:24:38.016Z,87.03
2023-01-01T21:27:12.321Z,87.22
2023-01-01T21:29:46.743Z,87.55
2023-01-01T21:32:27.404Z,87.05
2023-01-01T21:34:59.400Z,87.12
2023-01-01T21:37:52.880Z,87.23
2023-01-01T21:40:39.953Z,87.53
2023-01-01T21:43:32.936Z,87.54
2023-01-01T21:46:10.759Z,87.63
2023-01-01T21:49:09.433Z,87.69
2023-01-01T21:51:49.769Z,87.85
2023-01-01T21:54:27.315Z,88.04
2023-01-01T21:57:01.775Z,88.04
2023-01-01T21:59:39.478Z,87.86
2023-01-01T22:02:17.363Z,87.80
2023-01-01T22:04:51.282Z,87.82
2023-01-01T22:07:57.116Z,87.62
2023-01-01T22:10:04.648Z,87.81
2023-01-01T22:12:36.789Z,87.69
2023-01-01T22:15:29.068Z,88.06
2023-01-01T22:18:31.004Z,87.61
2023-01-01T22:21:04.319Z,87.58
2023-01-01T22:23:44.646Z,87.61
2023-01-01T22:26:25.036Z,87.26
2023-01-01T22:29:03.457Z,87.35
2023-01-01T22:31:36.677Z,87.39
2023-01-01T22:34:11.798Z,87.31
2023-01-01T22:36:43.721Z,87.23
2023-01-01T22:39:18.758Z,87.17
2023-01-01T22:41:52.000Z,87.22
2023-01-01T22:44:24.470Z,87.20
2023-01-01T22:46:59.204Z,87.22
2023-01-01T22:49:39.651Z,87.07
2023-01-01T22:52:14.837Z,86.98
2023-01-01T22:54:46.968Z,87.08
2023-01-01T22:57:19.066Z,87.06
2023-01-01T22:59:51.197Z,86.82
2023-01-01T23:02:23.110Z,86.34
2023-01-01T23:04:55.254Z,86.10
2023-01-01T23:07:28.912Z,86.01
2023-01-01T23:10:02.604Z,86.01
2023-01-01T23:12:34.528Z,86.10
2023-01-01T23:15:24.521Z,85.92
2023-01-01T23:17:56.560Z,85.91
2023-01-01T23:20:28.460Z,85.92
2023-01-01T23:23:00.592Z,86.16
2023-01-01T23:25:32.591Z,86.14
2023-01-01T23:28:04.753Z,86.10
2023-01-01T23:30:36.658Z,86.18
2023-01-01T23:33:08.856Z,86.03
2023-01-01T23:35:41.291Z,86.12
2023-01-01T23:38:13.623Z,86.20
2023-01-01T23:40:45.745Z,86.13
2023-01-01T23:43:18.036Z,86.38
2023-01-01T23:45:50.787Z,86.44
2023-01-01T23:48:23.929Z,86.25
2023-01-01T23:50:56.163Z,86.23
2023-01-01T23:53:28.327Z,86.38
2023-01-01T23:56:00.423Z,86.54
2023-01-01T23:58:32.465Z,86.52
